Ancelle (05) - Bbis

Date : 28/08/2014
Distance : 2,910 km

Place Nom Licence Catégorie Club Temps min/km CN à J-60 Points Différence Nouveau CN
1 OTSAMO Pihla 25029 D20 5907NO 0:40:04 13'46 5481 6029
2 MONTERRAT Amandine 8359 D21 4203RA 0:41:44 14'20 5047 5263 +216 5278
3 KOTECKA Michaela 14628 D35 5906NO 0:42:07 14'28 5215 3942
4 MOREL Eugenie 15479 D20 5407LO 0:42:35 14'38 4909 5158 +249 5007
5 MACHEMIN Marie 28270 D21 1905LI 0:43:43 15'01 4529 5024 +495 4718
6 VANNIER Valerie 2091 D35 7703IF 0:45:31 15'38 5688 4825 -863 5189
7 CAVALIER Héloïse 22600 D21 7512IF 0:45:42 15'42 5322 4806 -516 5294
8 KIRILOV Aurélie 20629 D21 5906NO 0:46:31 15'59 4771 4721 -50 4814
9 VERCASSON Rachel 14527 D21 2604RA 0:47:17 16'14 3861 4645 +784 4062
10 GERARD Lea 12284 D21 8807LO 0:47:21 16'16 0 4638 4168
11 MARCUZZI Cécile 28161 D20 6008PI 0:48:30 16'40 3439 4528 +1089 3815
12 MEMBREY Aurore 19740 D21 2508FC 0:48:39 16'43 3907 4514 +607 4257
13 GAUDRILLIER Laurence 19565 D35 7305RA 0:48:57 16'49 3903 4487 +584 3718
14 RAVENEL Manon 10903 D21 6804AL 0:49:41 17'04 3501 4420 +919 3529
15 FACHAUX Angélique 17577 D21 5907NO 0:51:15 17'36 4004 4285 +281 4193
16 BOVERO Severine 17002 D35 4201RA 0:51:17 17'37 5337 4283 -1054 4109
17 DUCHASSIN Audrey 12880 D35 8105MP 0:52:16 17'57 4196 4202 +6 4105
18 CHARDOT Julia 19345 D20 7807IF 0:53:17 18'18 4498 4122 -376 4449
19 BRUNDU-LEMAIRE Sarah 18059 D35 7807IF 0:54:35 18'45 4705 4024 -681 4651
20 DODIER Orianne 10485 D20 8405PR 0:54:55 18'52 3999 3988
21 POURRE Marion 10077 D20 2508FC 0:55:45 19'09 3886 3939 +53 3993
22 FONTAINE Helise 22962 D20 5907NO 0:56:05 19'16 4870 3916 -954 4870
23 KUCINSKA Laura 29171 D35 9502IF 0:56:41 19'28 3513 3875 +362 3732
24 HAYER Cécilia 26528 D21 6709AL 0:56:51 19'32 3345 3863 +518 3497
25 DEJARDIN Emilie 10863 D20 3811RA 0:57:05 19'36 3209 3847 +638 3419
26 RICARD BORCHORST Clarissa 14676 D21 9502IF 0:57:30 19'45 4224 3820 -404 4268
27 HENRIET Marie-Pierre 22393 D21 2508FC 0:57:44 19'50 3641 3804 +163 3771
28 DEMESSANCE Annaik 25595 D20 6008PI 0:57:45 19'50 3638 3803 +165 3586
29 GUILLOU Virginie 22241 D35 5402LO 0:57:53 19'53 4371 3794 -577 4371
30 RAVENEL Fanny 10904 D21 6804AL 0:57:55 19'54 4125 3792 -333 4117
31 VINCENT Marilyne 21023 D35 3913FC 0:58:30 20'06 3485 3754 +269 0
32 ROBIN Mélanie 24547 D35 6911RA 0:58:31 20'06 2763 3753 +990 2917
33 EDIAR Helene 14651 D35 9109IF 0:58:54 20'14 3920 3729 -191 3868
34 PARIGOT Virginie 2722 D35 2109BO 0:58:54 20'14 5028 3729 -1299 5108
35 FINAS Mélanie 29480 D21 5907NO 0:59:30 20'26 4336 3691 -645 4336
36 DONET Elodie 26938 D20 2109BO 1:00:03 20'38 3967 3657 -310 3967
37 MATHIEU Angélique 26227 D21 7722IF 1:00:05 20'38 3836 3655 -181 3793
38 RORA BONNEAU Mathilde 4373 D21 7719IF 1:00:40 20'50 4661 3620 -1041 4550
39 NIGGLI Daria 21017 D35 3913FC 1:01:23 21'05 4529 3578 -951 4462
40 PIERRE-KERANGUEVEN Sarah 23006 D35 4504CE 1:01:30 21'08 2163 3571 +1408 3075
41 LOUVET Eloise 912 D21 7707IF 1:03:12 21'43 4172 3475 -697 4184
42 PLAGNOL Fabienne 25582 D35 2605RA 1:03:35 21'50 2939 3454 +515 3453
43 JEHL Elodie 25617 D35 6911RA 1:03:51 21'56 3017 3440 +423 3352
44 VAN TORHOUDT Adèle 26885 D20 1403NM 1:04:50 22'16 3373 3388 +15 3562
45 DEBOCQMAINE Agnes 11476 D35 7707IF 1:05:08 22'22 4681 3372 -1309 4533
46 STEIN Virginie 13061 D35 5703LO 1:05:42 22'34 3910 3343 -567 3535
47 MURIS Myriam 26606 D35 7404RA 1:06:20 22'47 0 3311 3353
48 REMOND Mélanie 25088 D21 2109BO 1:06:52 22'58 2838 3285 +447 3013
49 CHEVREUX Angélique 16105 D35 7109BO 1:07:02 23'02 3423 3276 -147 3423
50 CHAGNON Emilie 20867 D35 2407AQ 1:07:50 23'18 3401 3238 -163 3437
51 BRIERE Axelle 24514 D35 2704NM 1:07:52 23'19 4073 3236 -837 4163
52 MANOPOULOS Anne 26515 D35 1303PR 1:08:11 23'25 3031 3221 +190 3219
53 HAGARD Virginie 7048 D21 5907NO 1:08:16 23'27 3297 3217 -80 3442
54 DUBOIS Elodie 25432 D21 9404IF 1:08:28 23'31 4131 3208 -923 4051
55 RIVIERE Estelle 22572 D21 2607RA 1:09:06 23'44 3178 0
56 ROUBOT Anaïs 25182 D20 2109BO 1:10:20 24'10 2500 3123 +623 2625
57 JUNG Chloé 22680 D35 7807IF 1:10:39 24'16 1346 3109 +1763 2606
58 GLAUDIN Clémentine 25899 D20 1403NM 1:11:02 24'24 3189 3092 -97 3126
59 CHEVALIER Caroline 24293 D35 8702LI 1:11:56 24'43 3854 3053 -801 3902
60 GOURLAIN Mathilde 18299 D20 6205NO 1:12:37 24'57 3087 3024 -63 3120
61 PEAN Anne Sophie 16744 D21 3408LR 1:12:59 25'04 3063 3009 -54 3050
62 COLLETTE Céline 24924 D35 4601MP 1:13:05 25'06 3675 3005 -670 3675
63 JUNCKER Guillaume 23423 H21 6804AL 1:13:46 25'20 3958 2977 -981 3808
64 PARIZOTTO Valérie 26637 D21 4705AQ 1:13:56 25'24 3438 2971 -467 3554
65 DOMBROVSKY Florence 25178 D35 6499AQ 1:14:14 25'30 2913 2959 +46 3000
66 RIOU BENARD Clara 26494 D20 8311AZ 1:14:31 25'36 3921 2947 -974 3063
67 COUTANCE Marion 26100 D20 1403NM 1:14:44 25'40 3616 2939 -677 3297
68 JACQUOT Marie 19129 D21 2108BO 1:14:56 25'45 2582 2931 +349 2698
69 PECHSTEIN Alice 9619 D35 5402LO 1:15:45 26'01 2397 2899 +502 2724
70 RIVOLLIER Isaline 22451 D20 4201RA 1:17:06 26'29 4565 2849 -1716 4513
71 AUBERT Gaëlle 29697 D21 8311AZ 1:17:55 26'46 2261 2819 +558 2477
72 SERRES Laurence 7407 D35 3308AQ 1:18:35 27'00 3176 2795 -381 3188
73 WILD Candice 29358 D21 2704NM 1:20:27 27'38 3195 2730 -465 3195
74 EININGER Celine 26071 D35 0615AZ 1:26:37 29'45 3173 2536 -637 3173
75 CHICHERY Séverine 26114 D35 8106MP 1:33:27 32'06 2842 2350 -492 2975
76 MAIGRE Rose Marie 27367 D35 4709AQ 1:33:52 32'15 3222 2340 -882 3309
77 CHESNEL Mélanie 27861 D20 1403NM 1:34:09 32'21 2461 2333 -128 2462
78 LAGRANGE Florence 16189 D35 7716IF 1:39:44 34'16 2217 2202 -15 2422
79 ASTOUL Sandrine 16801 D35 6911RA 1:43:58 35'43 2159 2112 -47 2340
80 DUPLESSIS Noémie 24302 D21 5116CA 1:47:58 37'06 3423 2034 -1389 3417
81 DELCUSE Patricia 29299 D35 6205NO 1:57:54 40'30 2215 1863 -352 2373
82 SUARD Raphaëlle 29766 D21 7807IF 2:02:58 42'15 1786 1474